sensor_id;sensor_type;location;lat;lon;timestamp;P1;durP1;ratioP1;P2;durP2;ratioP2
80936;SDS011;70395;51.382;7.074;2023-08-31T00:02:17;7.40;;;3.73;;
80936;SDS011;70395;51.382;7.074;2023-08-31T00:04:44;7.30;;;3.27;;
80936;SDS011;70395;51.382;7.074;2023-08-31T00:07:10;5.23;;;3.13;;
80936;SDS011;70395;51.382;7.074;2023-08-31T00:09:36;4.13;;;2.80;;
80936;SDS011;70395;51.382;7.074;2023-08-31T00:12:02;6.60;;;3.43;;
80936;SDS011;70395;51.382;7.074;2023-08-31T00:14:28;9.70;;;3.13;;
80936;SDS011;70395;51.382;7.074;2023-08-31T00:16:54;4.23;;;3.20;;
80936;SDS011;70395;51.382;7.074;2023-08-31T00:19:22;3.60;;;3.03;;
80936;SDS011;70395;51.382;7.074;2023-08-31T00:21:48;5.20;;;2.67;;
80936;SDS011;70395;51.382;7.074;2023-08-31T00:24:14;3.50;;;3.03;;
80936;SDS011;70395;51.382;7.074;2023-08-31T00:26:40;9.87;;;3.23;;
80936;SDS011;70395;51.382;7.074;2023-08-31T00:29:08;8.20;;;3.53;;
80936;SDS011;70395;51.382;7.074;2023-08-31T00:31:36;6.10;;;3.20;;
80936;SDS011;70395;51.382;7.074;2023-08-31T00:34:02;5.30;;;3.00;;
80936;SDS011;70395;51.382;7.074;2023-08-31T00:36:32;5.27;;;3.53;;
80936;SDS011;70395;51.382;7.074;2023-08-31T00:38:58;6.63;;;3.40;;
80936;SDS011;70395;51.382;7.074;2023-08-31T00:41:31;4.97;;;3.50;;
80936;SDS011;70395;51.382;7.074;2023-08-31T00:43:57;6.07;;;3.50;;
80936;SDS011;70395;51.382;7.074;2023-08-31T00:46:23;8.57;;;4.10;;
80936;SDS011;70395;51.382;7.074;2023-08-31T00:48:52;3.50;;;3.00;;
80936;SDS011;70395;51.382;7.074;2023-08-31T00:51:19;5.60;;;3.60;;
80936;SDS011;70395;51.382;7.074;2023-08-31T00:53:46;5.47;;;3.53;;
80936;SDS011;70395;51.382;7.074;2023-08-31T00:56:13;8.10;;;4.07;;
80936;SDS011;70395;51.382;7.074;2023-08-31T00:58:39;7.40;;;4.27;;
80936;SDS011;70395;51.382;7.074;2023-08-31T01:06:24;8.30;;;4.27;;
80936;SDS011;70395;51.382;7.074;2023-08-31T01:09:16;7.10;;;3.97;;
80936;SDS011;70395;51.382;7.074;2023-08-31T01:12:10;6.43;;;4.00;;
80936;SDS011;70395;51.382;7.074;2023-08-31T01:14:54;4.30;;;3.50;;
80936;SDS011;70395;51.382;7.074;2023-08-31T01:17:28;6.13;;;3.50;;
80936;SDS011;70395;51.382;7.074;2023-08-31T01:19:58;5.83;;;3.70;;
80936;SDS011;70395;51.382;7.074;2023-08-31T01:25:20;8.23;;;3.80;;
80936;SDS011;70395;51.382;7.074;2023-08-31T01:27:46;6.83;;;3.93;;
80936;SDS011;70395;51.382;7.074;2023-08-31T01:30:12;6.90;;;3.70;;
80936;SDS011;70395;51.382;7.074;2023-08-31T01:32:42;6.73;;;4.00;;
80936;SDS011;70395;51.382;7.074;2023-08-31T01:35:12;4.33;;;3.20;;
80936;SDS011;70395;51.382;7.074;2023-08-31T01:37:44;9.40;;;3.40;;
80936;SDS011;70395;51.382;7.074;2023-08-31T01:40:49;4.13;;;3.70;;
80936;SDS011;70395;51.382;7.074;2023-08-31T01:43:31;6.00;;;4.17;;
80936;SDS011;70395;51.382;7.074;2023-08-31T01:45:58;8.07;;;4.27;;
80936;SDS011;70395;51.382;7.074;2023-08-31T01:48:25;6.73;;;4.20;;
80936;SDS011;70395;51.382;7.074;2023-08-31T01:50:52;6.20;;;4.00;;
80936;SDS011;70395;51.382;7.074;2023-08-31T01:53:18;6.63;;;3.80;;
80936;SDS011;70395;51.382;7.074;2023-08-31T01:55:43;6.83;;;3.70;;
80936;SDS011;70395;51.382;7.074;2023-08-31T01:58:09;4.57;;;3.70;;
80936;SDS011;70395;51.382;7.074;2023-08-31T02:00:35;6.40;;;3.80;;
80936;SDS011;70395;51.382;7.074;2023-08-31T02:03:03;7.60;;;3.47;;
80936;SDS011;70395;51.382;7.074;2023-08-31T02:05:29;5.90;;;3.90;;
80936;SDS011;70395;51.382;7.074;2023-08-31T02:07:55;4.23;;;3.60;;
80936;SDS011;70395;51.382;7.074;2023-08-31T02:10:21;4.90;;;3.80;;
80936;SDS011;70395;51.382;7.074;2023-08-31T02:12:46;5.87;;;4.07;;
80936;SDS011;70395;51.382;7.074;2023-08-31T02:15:12;5.83;;;3.50;;
80936;SDS011;70395;51.382;7.074;2023-08-31T02:17:38;5.97;;;4.17;;
80936;SDS011;70395;51.382;7.074;2023-08-31T02:20:04;4.60;;;3.40;;
80936;SDS011;70395;51.382;7.074;2023-08-31T02:22:33;6.80;;;4.40;;
80936;SDS011;70395;51.382;7.074;2023-08-31T02:25:00;4.73;;;4.30;;
80936;SDS011;70395;51.382;7.074;2023-08-31T02:27:26;8.50;;;4.30;;
80936;SDS011;70395;51.382;7.074;2023-08-31T02:29:52;5.70;;;3.60;;
80936;SDS011;70395;51.382;7.074;2023-08-31T02:32:19;7.47;;;3.77;;
80936;SDS011;70395;51.382;7.074;2023-08-31T02:34:45;6.03;;;3.93;;
80936;SDS011;70395;51.382;7.074;2023-08-31T02:37:10;9.67;;;4.40;;
80936;SDS011;70395;51.382;7.074;2023-08-31T02:39:36;5.27;;;4.17;;
80936;SDS011;70395;51.382;7.074;2023-08-31T02:42:02;6.33;;;4.00;;
80936;SDS011;70395;51.382;7.074;2023-08-31T02:44:30;6.20;;;4.07;;
80936;SDS011;70395;51.382;7.074;2023-08-31T02:46:56;4.50;;;3.63;;
80936;SDS011;70395;51.382;7.074;2023-08-31T02:49:22;8.23;;;4.07;;
80936;SDS011;70395;51.382;7.074;2023-08-31T02:51:48;7.77;;;4.17;;
80936;SDS011;70395;51.382;7.074;2023-08-31T02:54:14;5.00;;;3.83;;
80936;SDS011;70395;51.382;7.074;2023-08-31T02:56:40;4.93;;;3.60;;
80936;SDS011;70395;51.382;7.074;2023-08-31T02:59:07;6.43;;;4.37;;
80936;SDS011;70395;51.382;7.074;2023-08-31T03:01:33;5.57;;;4.10;;
80936;SDS011;70395;51.382;7.074;2023-08-31T03:03:58;4.90;;;3.90;;
80936;SDS011;70395;51.382;7.074;2023-08-31T03:06:25;4.53;;;3.70;;
80936;SDS011;70395;51.382;7.074;2023-08-31T03:08:51;6.83;;;4.30;;
80936;SDS011;70395;51.382;7.074;2023-08-31T03:11:17;6.10;;;4.43;;
80936;SDS011;70395;51.382;7.074;2023-08-31T03:13:42;4.80;;;4.00;;
80936;SDS011;70395;51.382;7.074;2023-08-31T03:16:08;5.30;;;3.47;;
80936;SDS011;70395;51.382;7.074;2023-08-31T03:18:34;6.53;;;3.93;;
80936;SDS011;70395;51.382;7.074;2023-08-31T03:21:00;6.53;;;4.50;;
80936;SDS011;70395;51.382;7.074;2023-08-31T03:23:26;5.07;;;4.30;;
80936;SDS011;70395;51.382;7.074;2023-08-31T03:25:53;4.83;;;4.30;;
80936;SDS011;70395;51.382;7.074;2023-08-31T03:28:19;7.70;;;5.30;;
80936;SDS011;70395;51.382;7.074;2023-08-31T03:30:46;7.43;;;5.13;;
80936;SDS011;70395;51.382;7.074;2023-08-31T03:33:19;6.57;;;5.87;;
80936;SDS011;70395;51.382;7.074;2023-08-31T03:35:45;5.40;;;4.63;;
80936;SDS011;70395;51.382;7.074;2023-08-31T03:38:10;7.53;;;5.37;;
80936;SDS011;70395;51.382;7.074;2023-08-31T03:40:36;7.73;;;5.87;;
80936;SDS011;70395;51.382;7.074;2023-08-31T03:43:02;7.40;;;5.23;;
80936;SDS011;70395;51.382;7.074;2023-08-31T03:45:28;7.50;;;6.57;;
80936;SDS011;70395;51.382;7.074;2023-08-31T03:47:54;10.07;;;6.40;;
80936;SDS011;70395;51.382;7.074;2023-08-31T03:50:19;7.00;;;6.20;;
80936;SDS011;70395;51.382;7.074;2023-08-31T03:52:45;10.10;;;6.40;;
80936;SDS011;70395;51.382;7.074;2023-08-31T03:55:11;7.47;;;6.70;;
80936;SDS011;70395;51.382;7.074;2023-08-31T03:57:37;12.13;;;7.23;;
80936;SDS011;70395;51.382;7.074;2023-08-31T04:00:03;9.87;;;8.17;;
80936;SDS011;70395;51.382;7.074;2023-08-31T04:02:33;9.57;;;8.40;;
80936;SDS011;70395;51.382;7.074;2023-08-31T04:05:00;12.00;;;8.83;;
80936;SDS011;70395;51.382;7.074;2023-08-31T04:07:30;8.53;;;7.70;;
80936;SDS011;70395;51.382;7.074;2023-08-31T04:09:57;8.30;;;7.50;;
80936;SDS011;70395;51.382;7.074;2023-08-31T04:12:23;9.63;;;8.63;;
80936;SDS011;70395;51.382;7.074;2023-08-31T04:14:49;8.90;;;7.90;;
80936;SDS011;70395;51.382;7.074;2023-08-31T04:17:15;11.43;;;9.10;;
80936;SDS011;70395;51.382;7.074;2023-08-31T04:19:41;11.10;;;9.90;;
80936;SDS011;70395;51.382;7.074;2023-08-31T04:22:06;10.43;;;9.40;;
80936;SDS011;70395;51.382;7.074;2023-08-31T04:24:32;11.23;;;10.03;;
80936;SDS011;70395;51.382;7.074;2023-08-31T04:26:58;13.13;;;10.77;;
80936;SDS011;70395;51.382;7.074;2023-08-31T04:29:24;15.30;;;12.03;;
80936;SDS011;70395;51.382;7.074;2023-08-31T04:31:50;16.17;;;12.17;;
80936;SDS011;70395;51.382;7.074;2023-08-31T04:34:15;14.10;;;12.30;;
80936;SDS011;70395;51.382;7.074;2023-08-31T04:36:41;14.43;;;11.30;;
80936;SDS011;70395;51.382;7.074;2023-08-31T04:39:07;13.07;;;10.80;;
80936;SDS011;70395;51.382;7.074;2023-08-31T04:41:33;12.90;;;11.60;;
80936;SDS011;70395;51.382;7.074;2023-08-31T04:43:58;12.17;;;10.50;;
80936;SDS011;70395;51.382;7.074;2023-08-31T04:46:25;13.30;;;11.43;;
80936;SDS011;70395;51.382;7.074;2023-08-31T04:48:51;11.57;;;9.70;;
80936;SDS011;70395;51.382;7.074;2023-08-31T04:54:00;11.83;;;10.00;;
80936;SDS011;70395;51.382;7.074;2023-08-31T04:56:31;13.10;;;11.53;;
80936;SDS011;70395;51.382;7.074;2023-08-31T04:58:58;13.53;;;10.50;;
80936;SDS011;70395;51.382;7.074;2023-08-31T05:01:24;13.70;;;11.83;;
80936;SDS011;70395;51.382;7.074;2023-08-31T05:03:50;12.83;;;11.50;;
80936;SDS011;70395;51.382;7.074;2023-08-31T05:06:16;13.90;;;11.83;;
80936;SDS011;70395;51.382;7.074;2023-08-31T05:08:42;13.30;;;10.10;;
80936;SDS011;70395;51.382;7.074;2023-08-31T05:11:07;14.93;;;11.67;;
80936;SDS011;70395;51.382;7.074;2023-08-31T05:13:33;11.30;;;10.10;;
80936;SDS011;70395;51.382;7.074;2023-08-31T05:16:00;13.43;;;12.17;;
80936;SDS011;70395;51.382;7.074;2023-08-31T05:18:25;11.43;;;10.30;;
80936;SDS011;70395;51.382;7.074;2023-08-31T05:20:51;12.70;;;11.50;;
80936;SDS011;70395;51.382;7.074;2023-08-31T05:23:17;18.50;;;11.30;;
80936;SDS011;70395;51.382;7.074;2023-08-31T05:25:43;12.33;;;11.13;;
80936;SDS011;70395;51.382;7.074;2023-08-31T05:28:09;12.87;;;11.60;;
80936;SDS011;70395;51.382;7.074;2023-08-31T05:30:36;13.10;;;11.70;;
80936;SDS011;70395;51.382;7.074;2023-08-31T05:33:02;12.20;;;11.00;;
80936;SDS011;70395;51.382;7.074;2023-08-31T05:35:28;10.53;;;9.50;;
80936;SDS011;70395;51.382;7.074;2023-08-31T05:37:55;10.20;;;9.30;;
80936;SDS011;70395;51.382;7.074;2023-08-31T05:40:21;13.33;;;9.17;;
80936;SDS011;70395;51.382;7.074;2023-08-31T05:42:47;10.97;;;9.97;;
80936;SDS011;70395;51.382;7.074;2023-08-31T05:45:13;10.10;;;9.10;;
80936;SDS011;70395;51.382;7.074;2023-08-31T05:47:40;12.17;;;8.33;;
80936;SDS011;70395;51.382;7.074;2023-08-31T05:50:06;11.63;;;8.87;;
80936;SDS011;70395;51.382;7.074;2023-08-31T05:52:32;9.53;;;8.37;;
80936;SDS011;70395;51.382;7.074;2023-08-31T05:54:58;10.60;;;7.90;;
80936;SDS011;70395;51.382;7.074;2023-08-31T05:57:25;10.80;;;8.33;;
80936;SDS011;70395;51.382;7.074;2023-08-31T05:59:52;8.93;;;7.27;;
80936;SDS011;70395;51.382;7.074;2023-08-31T06:02:18;7.43;;;6.73;;
80936;SDS011;70395;51.382;7.074;2023-08-31T06:04:44;7.80;;;6.60;;
80936;SDS011;70395;51.382;7.074;2023-08-31T06:07:10;8.17;;;7.37;;
80936;SDS011;70395;51.382;7.074;2023-08-31T06:09:36;8.63;;;7.13;;
80936;SDS011;70395;51.382;7.074;2023-08-31T06:12:03;8.67;;;7.20;;
80936;SDS011;70395;51.382;7.074;2023-08-31T06:14:31;8.23;;;7.00;;
80936;SDS011;70395;51.382;7.074;2023-08-31T06:16:57;7.13;;;6.53;;
80936;SDS011;70395;51.382;7.074;2023-08-31T06:19:23;7.63;;;6.93;;
80936;SDS011;70395;51.382;7.074;2023-08-31T06:21:49;8.10;;;6.60;;
80936;SDS011;70395;51.382;7.074;2023-08-31T06:24:15;8.60;;;6.50;;
80936;SDS011;70395;51.382;7.074;2023-08-31T06:26:41;7.77;;;6.17;;
80936;SDS011;70395;51.382;7.074;2023-08-31T06:29:06;9.20;;;6.40;;
80936;SDS011;70395;51.382;7.074;2023-08-31T06:31:35;6.80;;;5.97;;
80936;SDS011;70395;51.382;7.074;2023-08-31T06:34:02;6.87;;;5.70;;
80936;SDS011;70395;51.382;7.074;2023-08-31T06:36:29;7.30;;;5.80;;
80936;SDS011;70395;51.382;7.074;2023-08-31T06:38:55;7.73;;;5.70;;
80936;SDS011;70395;51.382;7.074;2023-08-31T06:41:21;6.40;;;5.20;;
80936;SDS011;70395;51.382;7.074;2023-08-31T06:43:47;6.07;;;5.47;;
80936;SDS011;70395;51.382;7.074;2023-08-31T06:46:12;6.43;;;5.30;;
80936;SDS011;70395;51.382;7.074;2023-08-31T06:48:39;4.83;;;4.43;;
80936;SDS011;70395;51.382;7.074;2023-08-31T06:51:05;6.73;;;4.60;;
80936;SDS011;70395;51.382;7.074;2023-08-31T06:53:30;7.60;;;4.60;;
80936;SDS011;70395;51.382;7.074;2023-08-31T06:55:56;6.47;;;4.47;;
80936;SDS011;70395;51.382;7.074;2023-08-31T06:58:22;4.10;;;3.67;;
80936;SDS011;70395;51.382;7.074;2023-08-31T07:00:48;5.27;;;4.73;;
80936;SDS011;70395;51.382;7.074;2023-08-31T07:03:14;6.40;;;4.43;;
80936;SDS011;70395;51.382;7.074;2023-08-31T07:05:43;5.33;;;4.27;;
80936;SDS011;70395;51.382;7.074;2023-08-31T07:08:09;3.97;;;2.93;;
80936;SDS011;70395;51.382;7.074;2023-08-31T07:10:35;8.27;;;3.80;;
80936;SDS011;70395;51.382;7.074;2023-08-31T07:13:04;6.40;;;3.60;;
80936;SDS011;70395;51.382;7.074;2023-08-31T07:15:30;7.10;;;3.60;;
80936;SDS011;70395;51.382;7.074;2023-08-31T07:17:56;5.30;;;3.70;;
80936;SDS011;70395;51.382;7.074;2023-08-31T07:20:22;5.00;;;3.57;;
80936;SDS011;70395;51.382;7.074;2023-08-31T07:22:48;6.67;;;3.70;;
80936;SDS011;70395;51.382;7.074;2023-08-31T07:25:14;6.00;;;3.43;;
80936;SDS011;70395;51.382;7.074;2023-08-31T07:27:39;4.17;;;2.70;;
80936;SDS011;70395;51.382;7.074;2023-08-31T07:30:05;5.37;;;2.80;;
80936;SDS011;70395;51.382;7.074;2023-08-31T07:32:31;3.03;;;2.73;;
80936;SDS011;70395;51.382;7.074;2023-08-31T07:34:58;4.13;;;3.20;;
80936;SDS011;70395;51.382;7.074;2023-08-31T07:37:23;3.90;;;2.77;;
80936;SDS011;70395;51.382;7.074;2023-08-31T07:39:49;3.17;;;2.80;;
80936;SDS011;70395;51.382;7.074;2023-08-31T07:42:15;5.23;;;3.10;;
80936;SDS011;70395;51.382;7.074;2023-08-31T07:44:41;4.20;;;3.43;;
80936;SDS011;70395;51.382;7.074;2023-08-31T07:47:09;3.17;;;2.60;;
80936;SDS011;70395;51.382;7.074;2023-08-31T07:49:35;7.10;;;3.13;;
80936;SDS011;70395;51.382;7.074;2023-08-31T07:52:01;5.10;;;2.60;;
80936;SDS011;70395;51.382;7.074;2023-08-31T07:54:28;4.00;;;2.60;;
80936;SDS011;70395;51.382;7.074;2023-08-31T07:56:53;4.43;;;3.10;;
80936;SDS011;70395;51.382;7.074;2023-08-31T07:59:19;4.17;;;2.60;;
80936;SDS011;70395;51.382;7.074;2023-08-31T08:01:45;5.40;;;2.93;;
80936;SDS011;70395;51.382;7.074;2023-08-31T08:04:13;8.53;;;3.27;;
80936;SDS011;70395;51.382;7.074;2023-08-31T08:06:39;4.10;;;2.90;;
80936;SDS011;70395;51.382;7.074;2023-08-31T08:09:05;3.70;;;2.57;;
80936;SDS011;70395;51.382;7.074;2023-08-31T08:11:31;3.27;;;2.70;;
80936;SDS011;70395;51.382;7.074;2023-08-31T08:13:57;3.13;;;2.63;;
80936;SDS011;70395;51.382;7.074;2023-08-31T08:16:23;3.97;;;2.63;;
80936;SDS011;70395;51.382;7.074;2023-08-31T08:18:49;4.00;;;2.30;;
80936;SDS011;70395;51.382;7.074;2023-08-31T08:21:15;4.40;;;2.63;;
80936;SDS011;70395;51.382;7.074;2023-08-31T08:23:41;3.10;;;2.80;;
80936;SDS011;70395;51.382;7.074;2023-08-31T08:26:07;9.50;;;3.60;;
80936;SDS011;70395;51.382;7.074;2023-08-31T08:28:32;3.57;;;2.70;;
80936;SDS011;70395;51.382;7.074;2023-08-31T08:31:01;5.20;;;2.73;;
80936;SDS011;70395;51.382;7.074;2023-08-31T08:33:30;3.80;;;2.67;;
80936;SDS011;70395;51.382;7.074;2023-08-31T08:35:56;5.60;;;3.07;;
80936;SDS011;70395;51.382;7.074;2023-08-31T08:38:23;5.00;;;2.67;;
80936;SDS011;70395;51.382;7.074;2023-08-31T08:40:49;6.60;;;3.30;;
80936;SDS011;70395;51.382;7.074;2023-08-31T08:43:14;5.73;;;2.73;;
80936;SDS011;70395;51.382;7.074;2023-08-31T08:45:46;3.37;;;2.43;;
80936;SDS011;70395;51.382;7.074;2023-08-31T08:48:15;3.80;;;3.10;;
80936;SDS011;70395;51.382;7.074;2023-08-31T08:50:43;4.97;;;2.70;;
80936;SDS011;70395;51.382;7.074;2023-08-31T08:53:08;6.67;;;3.00;;
80936;SDS011;70395;51.382;7.074;2023-08-31T08:55:36;4.93;;;2.53;;
80936;SDS011;70395;51.382;7.074;2023-08-31T08:58:02;3.30;;;2.70;;
80936;SDS011;70395;51.382;7.074;2023-08-31T09:00:29;2.63;;;1.93;;
80936;SDS011;70395;51.382;7.074;2023-08-31T09:02:55;3.00;;;1.93;;
80936;SDS011;70395;51.382;7.074;2023-08-31T09:05:22;3.10;;;2.00;;
80936;SDS011;70395;51.382;7.074;2023-08-31T09:08:07;4.27;;;2.50;;
80936;SDS011;70395;51.382;7.074;2023-08-31T09:10:38;3.53;;;2.23;;
80936;SDS011;70395;51.382;7.074;2023-08-31T09:13:09;2.93;;;2.10;;
80936;SDS011;70395;51.382;7.074;2023-08-31T09:18:17;4.97;;;2.30;;
80936;SDS011;70395;51.382;7.074;2023-08-31T09:20:51;3.37;;;2.33;;
80936;SDS011;70395;51.382;7.074;2023-08-31T09:23:18;5.00;;;2.60;;
80936;SDS011;70395;51.382;7.074;2023-08-31T09:25:51;3.40;;;2.00;;
80936;SDS011;70395;51.382;7.074;2023-08-31T09:28:23;3.37;;;2.37;;
80936;SDS011;70395;51.382;7.074;2023-08-31T09:30:52;4.87;;;2.57;;
80936;SDS011;70395;51.382;7.074;2023-08-31T09:33:30;2.90;;;2.07;;
80936;SDS011;70395;51.382;7.074;2023-08-31T09:35:57;3.00;;;2.00;;
80936;SDS011;70395;51.382;7.074;2023-08-31T09:38:26;2.87;;;2.10;;
80936;SDS011;70395;51.382;7.074;2023-08-31T09:40:52;3.83;;;2.00;;
80936;SDS011;70395;51.382;7.074;2023-08-31T09:43:28;5.30;;;2.00;;
80936;SDS011;70395;51.382;7.074;2023-08-31T09:45:54;3.03;;;1.80;;
80936;SDS011;70395;51.382;7.074;2023-08-31T09:48:20;3.63;;;1.93;;
80936;SDS011;70395;51.382;7.074;2023-08-31T09:50:48;4.27;;;2.10;;
80936;SDS011;70395;51.382;7.074;2023-08-31T09:53:16;3.27;;;2.23;;
80936;SDS011;70395;51.382;7.074;2023-08-31T09:55:45;5.43;;;2.00;;
80936;SDS011;70395;51.382;7.074;2023-08-31T09:58:17;3.97;;;1.93;;
80936;SDS011;70395;51.382;7.074;2023-08-31T10:00:45;1.90;;;1.50;;
80936;SDS011;70395;51.382;7.074;2023-08-31T10:03:13;2.60;;;1.87;;
80936;SDS011;70395;51.382;7.074;2023-08-31T10:05:40;3.60;;;2.43;;
80936;SDS011;70395;51.382;7.074;2023-08-31T10:08:11;3.50;;;1.90;;
80936;SDS011;70395;51.382;7.074;2023-08-31T10:10:37;4.47;;;1.77;;
80936;SDS011;70395;51.382;7.074;2023-08-31T10:13:05;3.90;;;2.50;;
80936;SDS011;70395;51.382;7.074;2023-08-31T10:15:32;4.73;;;2.13;;
80936;SDS011;70395;51.382;7.074;2023-08-31T10:18:05;3.17;;;2.17;;
80936;SDS011;70395;51.382;7.074;2023-08-31T10:20:32;3.90;;;1.67;;
80936;SDS011;70395;51.382;7.074;2023-08-31T10:23:02;3.50;;;2.23;;
80936;SDS011;70395;51.382;7.074;2023-08-31T10:33:31;4.77;;;1.60;;
80936;SDS011;70395;51.382;7.074;2023-08-31T10:36:12;3.13;;;2.07;;
80936;SDS011;70395;51.382;7.074;2023-08-31T10:38:45;3.00;;;2.20;;
80936;SDS011;70395;51.382;7.074;2023-08-31T10:43:43;2.90;;;1.60;;
80936;SDS011;70395;51.382;7.074;2023-08-31T10:49:06;6.50;;;2.33;;
80936;SDS011;70395;51.382;7.074;2023-08-31T11:02:26;3.40;;;2.27;;
80936;SDS011;70395;51.382;7.074;2023-08-31T11:07:41;4.53;;;1.83;;
80936;SDS011;70395;51.382;7.074;2023-08-31T11:12:50;4.80;;;2.03;;
80936;SDS011;70395;51.382;7.074;2023-08-31T11:15:22;5.70;;;2.17;;
80936;SDS011;70395;51.382;7.074;2023-08-31T11:17:51;3.57;;;2.27;;
80936;SDS011;70395;51.382;7.074;2023-08-31T11:20:20;3.67;;;2.00;;
80936;SDS011;70395;51.382;7.074;2023-08-31T11:22:49;2.43;;;1.77;;
80936;SDS011;70395;51.382;7.074;2023-08-31T11:25:18;5.03;;;2.20;;
80936;SDS011;70395;51.382;7.074;2023-08-31T11:27:54;3.60;;;2.30;;
80936;SDS011;70395;51.382;7.074;2023-08-31T11:30:20;2.53;;;1.63;;
80936;SDS011;70395;51.382;7.074;2023-08-31T11:32:47;3.80;;;1.97;;
80936;SDS011;70395;51.382;7.074;2023-08-31T11:35:16;4.80;;;1.67;;
80936;SDS011;70395;51.382;7.074;2023-08-31T11:37:43;3.50;;;1.70;;
80936;SDS011;70395;51.382;7.074;2023-08-31T11:40:10;2.33;;;2.13;;
80936;SDS011;70395;51.382;7.074;2023-08-31T11:42:39;6.43;;;2.27;;
80936;SDS011;70395;51.382;7.074;2023-08-31T11:45:06;3.23;;;1.90;;
80936;SDS011;70395;51.382;7.074;2023-08-31T11:47:34;3.17;;;1.97;;
80936;SDS011;70395;51.382;7.074;2023-08-31T11:50:01;4.63;;;2.07;;
80936;SDS011;70395;51.382;7.074;2023-08-31T11:52:30;2.70;;;1.77;;
80936;SDS011;70395;51.382;7.074;2023-08-31T11:54:56;6.23;;;1.90;;
80936;SDS011;70395;51.382;7.074;2023-08-31T11:57:25;2.37;;;1.60;;
80936;SDS011;70395;51.382;7.074;2023-08-31T11:59:54;2.40;;;1.57;;
80936;SDS011;70395;51.382;7.074;2023-08-31T12:02:23;3.53;;;1.90;;
80936;SDS011;70395;51.382;7.074;2023-08-31T12:04:49;3.80;;;1.83;;
80936;SDS011;70395;51.382;7.074;2023-08-31T12:07:18;4.03;;;1.80;;
80936;SDS011;70395;51.382;7.074;2023-08-31T12:09:44;4.20;;;2.10;;
80936;SDS011;70395;51.382;7.074;2023-08-31T12:12:13;5.60;;;2.30;;
80936;SDS011;70395;51.382;7.074;2023-08-31T12:14:40;6.03;;;2.30;;
80936;SDS011;70395;51.382;7.074;2023-08-31T12:17:08;5.47;;;2.20;;
80936;SDS011;70395;51.382;7.074;2023-08-31T12:19:38;4.30;;;2.83;;
80936;SDS011;70395;51.382;7.074;2023-08-31T12:22:04;5.77;;;3.00;;
80936;SDS011;70395;51.382;7.074;2023-08-31T12:24:38;3.70;;;2.50;;
80936;SDS011;70395;51.382;7.074;2023-08-31T12:27:05;5.97;;;2.20;;
80936;SDS011;70395;51.382;7.074;2023-08-31T12:29:36;2.70;;;2.07;;
80936;SDS011;70395;51.382;7.074;2023-08-31T12:32:01;3.67;;;1.90;;
80936;SDS011;70395;51.382;7.074;2023-08-31T12:34:28;6.40;;;2.50;;
80936;SDS011;70395;51.382;7.074;2023-08-31T12:36:56;4.53;;;1.50;;
80936;SDS011;70395;51.382;7.074;2023-08-31T12:39:26;4.23;;;2.10;;
80936;SDS011;70395;51.382;7.074;2023-08-31T12:41:52;3.60;;;1.60;;
80936;SDS011;70395;51.382;7.074;2023-08-31T12:44:18;4.43;;;2.40;;
80936;SDS011;70395;51.382;7.074;2023-08-31T12:46:44;2.80;;;1.70;;
80936;SDS011;70395;51.382;7.074;2023-08-31T12:49:09;2.03;;;1.43;;
80936;SDS011;70395;51.382;7.074;2023-08-31T12:51:35;2.83;;;1.47;;
80936;SDS011;70395;51.382;7.074;2023-08-31T12:54:01;3.50;;;1.43;;
80936;SDS011;70395;51.382;7.074;2023-08-31T12:56:28;2.30;;;1.50;;
80936;SDS011;70395;51.382;7.074;2023-08-31T12:58:54;3.00;;;1.50;;
80936;SDS011;70395;51.382;7.074;2023-08-31T13:01:21;3.73;;;2.17;;
80936;SDS011;70395;51.382;7.074;2023-08-31T13:03:48;2.80;;;2.20;;
80936;SDS011;70395;51.382;7.074;2023-08-31T13:06:14;3.50;;;1.97;;
80936;SDS011;70395;51.382;7.074;2023-08-31T13:08:41;3.73;;;1.83;;
80936;SDS011;70395;51.382;7.074;2023-08-31T13:11:09;4.70;;;2.10;;
80936;SDS011;70395;51.382;7.074;2023-08-31T13:13:36;3.40;;;2.17;;
80936;SDS011;70395;51.382;7.074;2023-08-31T13:16:03;5.03;;;2.60;;
80936;SDS011;70395;51.382;7.074;2023-08-31T13:18:29;3.17;;;1.73;;
80936;SDS011;70395;51.382;7.074;2023-08-31T13:20:55;4.60;;;2.30;;
80936;SDS011;70395;51.382;7.074;2023-08-31T13:23:21;3.33;;;2.20;;
80936;SDS011;70395;51.382;7.074;2023-08-31T13:25:48;2.43;;;1.57;;
80936;SDS011;70395;51.382;7.074;2023-08-31T13:28:15;4.37;;;2.20;;
80936;SDS011;70395;51.382;7.074;2023-08-31T13:30:41;3.07;;;1.80;;
80936;SDS011;70395;51.382;7.074;2023-08-31T13:33:10;3.67;;;2.20;;
80936;SDS011;70395;51.382;7.074;2023-08-31T13:35:36;3.90;;;2.10;;
80936;SDS011;70395;51.382;7.074;2023-08-31T13:38:02;4.43;;;2.30;;
80936;SDS011;70395;51.382;7.074;2023-08-31T13:40:28;6.10;;;2.67;;
80936;SDS011;70395;51.382;7.074;2023-08-31T13:42:55;5.07;;;2.30;;
80936;SDS011;70395;51.382;7.074;2023-08-31T13:45:26;4.43;;;2.03;;
80936;SDS011;70395;51.382;7.074;2023-08-31T13:47:52;3.33;;;2.20;;
80936;SDS011;70395;51.382;7.074;2023-08-31T13:50:18;6.63;;;2.53;;
80936;SDS011;70395;51.382;7.074;2023-08-31T13:52:44;4.53;;;2.50;;
80936;SDS011;70395;51.382;7.074;2023-08-31T13:55:11;4.20;;;2.00;;
80936;SDS011;70395;51.382;7.074;2023-08-31T13:57:38;3.70;;;2.03;;
80936;SDS011;70395;51.382;7.074;2023-08-31T14:00:07;3.60;;;1.90;;
80936;SDS011;70395;51.382;7.074;2023-08-31T14:02:34;4.83;;;2.63;;
80936;SDS011;70395;51.382;7.074;2023-08-31T14:05:02;4.03;;;2.00;;
80936;SDS011;70395;51.382;7.074;2023-08-31T14:07:31;3.83;;;2.10;;
80936;SDS011;70395;51.382;7.074;2023-08-31T14:09:58;3.40;;;2.20;;
80936;SDS011;70395;51.382;7.074;2023-08-31T14:12:24;7.93;;;2.73;;
80936;SDS011;70395;51.382;7.074;2023-08-31T14:14:50;3.27;;;2.07;;
80936;SDS011;70395;51.382;7.074;2023-08-31T14:17:17;3.40;;;1.63;;
80936;SDS011;70395;51.382;7.074;2023-08-31T14:19:44;3.60;;;2.17;;
80936;SDS011;70395;51.382;7.074;2023-08-31T14:22:10;4.60;;;1.50;;
80936;SDS011;70395;51.382;7.074;2023-08-31T14:24:36;5.70;;;2.00;;
80936;SDS011;70395;51.382;7.074;2023-08-31T14:27:02;4.83;;;2.20;;
80936;SDS011;70395;51.382;7.074;2023-08-31T14:29:29;3.80;;;2.20;;
80936;SDS011;70395;51.382;7.074;2023-08-31T14:31:55;3.17;;;1.37;;
80936;SDS011;70395;51.382;7.074;2023-08-31T14:34:21;4.60;;;1.70;;
80936;SDS011;70395;51.382;7.074;2023-08-31T14:36:47;4.33;;;1.90;;
80936;SDS011;70395;51.382;7.074;2023-08-31T14:39:13;3.07;;;1.73;;
80936;SDS011;70395;51.382;7.074;2023-08-31T14:41:43;3.00;;;2.37;;
80936;SDS011;70395;51.382;7.074;2023-08-31T14:44:08;3.90;;;3.13;;
80936;SDS011;70395;51.382;7.074;2023-08-31T14:46:34;3.97;;;3.43;;
80936;SDS011;70395;51.382;7.074;2023-08-31T14:49:00;5.90;;;3.63;;
80936;SDS011;70395;51.382;7.074;2023-08-31T14:51:26;4.90;;;3.60;;
80936;SDS011;70395;51.382;7.074;2023-08-31T14:53:51;5.73;;;3.53;;
80936;SDS011;70395;51.382;7.074;2023-08-31T14:56:17;6.97;;;3.47;;
80936;SDS011;70395;51.382;7.074;2023-08-31T14:58:43;8.80;;;3.53;;
80936;SDS011;70395;51.382;7.074;2023-08-31T15:01:09;6.00;;;3.43;;
80936;SDS011;70395;51.382;7.074;2023-08-31T15:03:34;4.00;;;3.30;;
80936;SDS011;70395;51.382;7.074;2023-08-31T15:06:01;4.57;;;3.27;;
80936;SDS011;70395;51.382;7.074;2023-08-31T15:08:35;4.83;;;3.57;;
80936;SDS011;70395;51.382;7.074;2023-08-31T15:11:06;3.77;;;2.70;;
80936;SDS011;70395;51.382;7.074;2023-08-31T15:13:33;4.87;;;3.30;;
80936;SDS011;70395;51.382;7.074;2023-08-31T15:15:59;4.00;;;3.13;;
80936;SDS011;70395;51.382;7.074;2023-08-31T15:18:26;6.33;;;3.03;;
80936;SDS011;70395;51.382;7.074;2023-08-31T15:20:55;3.93;;;2.90;;
80936;SDS011;70395;51.382;7.074;2023-08-31T15:23:21;4.00;;;2.53;;
80936;SDS011;70395;51.382;7.074;2023-08-31T15:25:48;5.37;;;3.50;;
80936;SDS011;70395;51.382;7.074;2023-08-31T15:28:14;3.20;;;2.70;;
80936;SDS011;70395;51.382;7.074;2023-08-31T15:30:40;5.80;;;3.10;;